Bridgton, Maine
Current Conditions -  °F | °C
As of 3:54 PM on Saturday 22 Nov 2014 (Local Time) from KIZG Reporting Station
Clear Clear  
Wind Chill: 29°   Ceiling: Unl
Heat Index: 33°   Visibility: 10mi
Dew Point:   Wind: 5mph
Humidity: 37%   Direction: 210°SSW
Pressure: 30.03"   Gusts: NA
Location:  44.06°N, 70.7°W
Report Text: KIZG 222054Z AUTO 21004KT 10SM CLR 01/M13 A3003 RMK AO2 SLP176 T00061128 56023
Loading
Personal Weather Stations






























Interactive Weather Map New forecast layout! Learn more

10-Day Weather Forecast

Advertisements
Track Severe Weather on mobile